sensor_id;sensor_type;location;lat;lon;timestamp;temperature;humidity
11647;DHT22;5880;52.342;9.662;2023-05-07T00:01:45;14.50;61.30
11647;DHT22;5880;52.342;9.662;2023-05-07T00:04:11;14.40;61.40
11647;DHT22;5880;52.342;9.662;2023-05-07T00:06:37;14.40;61.40
11647;DHT22;5880;52.342;9.662;2023-05-07T00:09:02;14.40;61.60
11647;DHT22;5880;52.342;9.662;2023-05-07T00:11:29;14.40;61.50
11647;DHT22;5880;52.342;9.662;2023-05-07T00:13:55;14.40;61.60
11647;DHT22;5880;52.342;9.662;2023-05-07T00:16:21;14.30;61.60
11647;DHT22;5880;52.342;9.662;2023-05-07T00:18:46;14.30;61.60
11647;DHT22;5880;52.342;9.662;2023-05-07T00:21:12;14.30;61.70
11647;DHT22;5880;52.342;9.662;2023-05-07T00:23:38;14.30;61.60
11647;DHT22;5880;52.342;9.662;2023-05-07T00:26:04;14.20;61.60
11647;DHT22;5880;52.342;9.662;2023-05-07T00:28:29;14.30;61.80
11647;DHT22;5880;52.342;9.662;2023-05-07T00:30:55;14.20;62.10
11647;DHT22;5880;52.342;9.662;2023-05-07T00:33:21;14.20;61.90
11647;DHT22;5880;52.342;9.662;2023-05-07T00:35:48;14.20;61.80
11647;DHT22;5880;52.342;9.662;2023-05-07T00:38:14;14.20;62.10
11647;DHT22;5880;52.342;9.662;2023-05-07T00:40:40;14.20;62.10
11647;DHT22;5880;52.342;9.662;2023-05-07T00:43:06;14.20;62.20
11647;DHT22;5880;52.342;9.662;2023-05-07T00:45:32;14.20;62.20
11647;DHT22;5880;52.342;9.662;2023-05-07T00:48:00;14.10;62.40
11647;DHT22;5880;52.342;9.662;2023-05-07T00:50:32;14.10;62.70
11647;DHT22;5880;52.342;9.662;2023-05-07T00:52:58;14.00;62.30
11647;DHT22;5880;52.342;9.662;2023-05-07T00:55:25;14.10;62.50
11647;DHT22;5880;52.342;9.662;2023-05-07T00:57:51;14.10;62.50
11647;DHT22;5880;52.342;9.662;2023-05-07T01:00:17;14.10;62.70
11647;DHT22;5880;52.342;9.662;2023-05-07T01:02:44;14.00;62.60
11647;DHT22;5880;52.342;9.662;2023-05-07T01:05:12;14.00;62.60
11647;DHT22;5880;52.342;9.662;2023-05-07T01:07:42;14.10;63.30
11647;DHT22;5880;52.342;9.662;2023-05-07T01:10:08;14.00;62.90
11647;DHT22;5880;52.342;9.662;2023-05-07T01:12:36;14.00;62.70
11647;DHT22;5880;52.342;9.662;2023-05-07T01:15:03;14.00;63.00
11647;DHT22;5880;52.342;9.662;2023-05-07T01:17:37;14.00;62.70
11647;DHT22;5880;52.342;9.662;2023-05-07T01:20:05;14.00;63.20
11647;DHT22;5880;52.342;9.662;2023-05-07T01:22:38;14.00;62.80
11647;DHT22;5880;52.342;9.662;2023-05-07T01:25:05;14.00;63.00
11647;DHT22;5880;52.342;9.662;2023-05-07T01:27:32;14.00;62.90
11647;DHT22;5880;52.342;9.662;2023-05-07T01:30:05;13.90;62.60
11647;DHT22;5880;52.342;9.662;2023-05-07T01:32:37;13.90;62.80
11647;DHT22;5880;52.342;9.662;2023-05-07T01:35:09;13.90;63.10
11647;DHT22;5880;52.342;9.662;2023-05-07T01:37:36;13.90;62.90
11647;DHT22;5880;52.342;9.662;2023-05-07T01:40:03;13.90;62.80
11647;DHT22;5880;52.342;9.662;2023-05-07T01:42:30;13.90;63.10
11647;DHT22;5880;52.342;9.662;2023-05-07T01:44:56;13.90;63.30
11647;DHT22;5880;52.342;9.662;2023-05-07T01:47:23;13.80;62.90
11647;DHT22;5880;52.342;9.662;2023-05-07T01:49:50;13.80;63.20
11647;DHT22;5880;52.342;9.662;2023-05-07T01:52:16;13.80;63.20
11647;DHT22;5880;52.342;9.662;2023-05-07T01:54:41;13.70;63.30
11647;DHT22;5880;52.342;9.662;2023-05-07T01:57:07;13.70;63.20
11647;DHT22;5880;52.342;9.662;2023-05-07T01:59:33;13.70;63.30
11647;DHT22;5880;52.342;9.662;2023-05-07T02:01:59;13.70;63.20
11647;DHT22;5880;52.342;9.662;2023-05-07T02:04:26;13.70;63.20
11647;DHT22;5880;52.342;9.662;2023-05-07T02:06:51;13.70;63.10
11647;DHT22;5880;52.342;9.662;2023-05-07T02:09:18;13.70;63.20
11647;DHT22;5880;52.342;9.662;2023-05-07T02:11:44;13.70;63.10
11647;DHT22;5880;52.342;9.662;2023-05-07T02:14:09;13.70;63.00
11647;DHT22;5880;52.342;9.662;2023-05-07T02:16:35;13.70;63.20
11647;DHT22;5880;52.342;9.662;2023-05-07T02:19:01;13.80;63.10
11647;DHT22;5880;52.342;9.662;2023-05-07T02:21:27;13.70;63.10
11647;DHT22;5880;52.342;9.662;2023-05-07T02:23:56;13.80;62.90
11647;DHT22;5880;52.342;9.662;2023-05-07T02:26:21;13.80;63.10
11647;DHT22;5880;52.342;9.662;2023-05-07T02:28:47;13.80;62.90
11647;DHT22;5880;52.342;9.662;2023-05-07T02:31:13;13.80;62.80
11647;DHT22;5880;52.342;9.662;2023-05-07T02:33:38;13.80;63.00
11647;DHT22;5880;52.342;9.662;2023-05-07T02:36:11;13.80;62.70
11647;DHT22;5880;52.342;9.662;2023-05-07T02:38:37;13.80;63.00
11647;DHT22;5880;52.342;9.662;2023-05-07T02:41:03;13.80;62.60
11647;DHT22;5880;52.342;9.662;2023-05-07T02:43:29;13.80;62.50
11647;DHT22;5880;52.342;9.662;2023-05-07T02:46:06;13.80;62.60
11647;DHT22;5880;52.342;9.662;2023-05-07T02:48:33;13.80;62.90
11647;DHT22;5880;52.342;9.662;2023-05-07T02:50:59;13.80;62.40
11647;DHT22;5880;52.342;9.662;2023-05-07T02:53:26;13.80;62.50
11647;DHT22;5880;52.342;9.662;2023-05-07T02:55:53;13.80;62.50
11647;DHT22;5880;52.342;9.662;2023-05-07T02:58:19;13.80;62.40
11647;DHT22;5880;52.342;9.662;2023-05-07T03:00:48;13.80;62.50
11647;DHT22;5880;52.342;9.662;2023-05-07T03:03:14;13.80;62.40
11647;DHT22;5880;52.342;9.662;2023-05-07T03:05:40;13.80;62.40
11647;DHT22;5880;52.342;9.662;2023-05-07T03:08:06;13.80;62.50
11647;DHT22;5880;52.342;9.662;2023-05-07T03:10:32;13.80;62.50
11647;DHT22;5880;52.342;9.662;2023-05-07T03:12:58;13.80;62.50
11647;DHT22;5880;52.342;9.662;2023-05-07T03:15:23;13.80;62.40
11647;DHT22;5880;52.342;9.662;2023-05-07T03:17:49;13.80;62.50
11647;DHT22;5880;52.342;9.662;2023-05-07T03:20:15;13.80;62.50
11647;DHT22;5880;52.342;9.662;2023-05-07T03:22:41;13.80;62.60
11647;DHT22;5880;52.342;9.662;2023-05-07T03:25:08;13.80;62.40
11647;DHT22;5880;52.342;9.662;2023-05-07T03:27:34;13.80;62.40
11647;DHT22;5880;52.342;9.662;2023-05-07T03:30:00;13.80;62.40
11647;DHT22;5880;52.342;9.662;2023-05-07T03:32:26;13.80;62.30
11647;DHT22;5880;52.342;9.662;2023-05-07T03:34:52;13.70;62.40
11647;DHT22;5880;52.342;9.662;2023-05-07T03:37:18;13.70;62.50
11647;DHT22;5880;52.342;9.662;2023-05-07T03:39:44;13.70;62.50
11647;DHT22;5880;52.342;9.662;2023-05-07T03:42:10;13.70;62.70
11647;DHT22;5880;52.342;9.662;2023-05-07T03:44:36;13.70;62.50
11647;DHT22;5880;52.342;9.662;2023-05-07T03:47:02;13.70;62.70
11647;DHT22;5880;52.342;9.662;2023-05-07T03:49:31;13.70;62.80
11647;DHT22;5880;52.342;9.662;2023-05-07T03:51:56;13.60;63.00
11647;DHT22;5880;52.342;9.662;2023-05-07T03:54:25;13.90;62.90
11647;DHT22;5880;52.342;9.662;2023-05-07T03:56:50;13.60;62.80
11647;DHT22;5880;52.342;9.662;2023-05-07T03:59:16;13.60;62.90
11647;DHT22;5880;52.342;9.662;2023-05-07T04:01:42;13.60;63.20
11647;DHT22;5880;52.342;9.662;2023-05-07T04:04:07;13.50;63.00
11647;DHT22;5880;52.342;9.662;2023-05-07T04:06:33;13.50;63.20
11647;DHT22;5880;52.342;9.662;2023-05-07T04:08:59;13.50;63.00
11647;DHT22;5880;52.342;9.662;2023-05-07T04:11:25;13.50;63.10
11647;DHT22;5880;52.342;9.662;2023-05-07T04:13:50;13.50;63.20
11647;DHT22;5880;52.342;9.662;2023-05-07T04:16:16;13.50;63.30
11647;DHT22;5880;52.342;9.662;2023-05-07T04:18:41;13.50;63.50
11647;DHT22;5880;52.342;9.662;2023-05-07T04:21:18;13.50;63.30
11647;DHT22;5880;52.342;9.662;2023-05-07T04:23:46;13.40;63.70
11647;DHT22;5880;52.342;9.662;2023-05-07T04:26:12;13.50;63.30
11647;DHT22;5880;52.342;9.662;2023-05-07T04:28:38;13.50;63.40
11647;DHT22;5880;52.342;9.662;2023-05-07T04:31:05;13.50;63.30
11647;DHT22;5880;52.342;9.662;2023-05-07T04:33:31;13.50;63.50
11647;DHT22;5880;52.342;9.662;2023-05-07T04:35:58;13.50;63.50
11647;DHT22;5880;52.342;9.662;2023-05-07T04:38:28;13.50;63.40
11647;DHT22;5880;52.342;9.662;2023-05-07T04:41:06;13.50;63.50
11647;DHT22;5880;52.342;9.662;2023-05-07T04:43:33;13.50;63.40
11647;DHT22;5880;52.342;9.662;2023-05-07T04:45:59;13.50;63.60
11647;DHT22;5880;52.342;9.662;2023-05-07T04:48:25;13.50;63.50
11647;DHT22;5880;52.342;9.662;2023-05-07T04:50:52;13.40;63.40
11647;DHT22;5880;52.342;9.662;2023-05-07T04:53:18;13.50;63.60
11647;DHT22;5880;52.342;9.662;2023-05-07T04:55:44;13.40;63.40
11647;DHT22;5880;52.342;9.662;2023-05-07T04:58:11;13.40;63.40
11647;DHT22;5880;52.342;9.662;2023-05-07T05:00:37;13.50;64.30
11647;DHT22;5880;52.342;9.662;2023-05-07T05:03:05;13.50;63.50
11647;DHT22;5880;52.342;9.662;2023-05-07T05:05:32;13.50;63.50
11647;DHT22;5880;52.342;9.662;2023-05-07T05:07:58;13.50;63.60
11647;DHT22;5880;52.342;9.662;2023-05-07T05:10:23;13.50;63.40
11647;DHT22;5880;52.342;9.662;2023-05-07T05:12:50;13.50;63.30
11647;DHT22;5880;52.342;9.662;2023-05-07T05:15:15;13.50;63.50
11647;DHT22;5880;52.342;9.662;2023-05-07T05:17:41;13.50;63.50
11647;DHT22;5880;52.342;9.662;2023-05-07T05:20:07;13.50;63.40
11647;DHT22;5880;52.342;9.662;2023-05-07T05:22:34;13.40;63.20
11647;DHT22;5880;52.342;9.662;2023-05-07T05:25:00;13.50;63.50
11647;DHT22;5880;52.342;9.662;2023-05-07T05:27:26;13.50;63.40
11647;DHT22;5880;52.342;9.662;2023-05-07T05:29:52;13.50;63.50
11647;DHT22;5880;52.342;9.662;2023-05-07T05:32:17;13.40;63.40
11647;DHT22;5880;52.342;9.662;2023-05-07T05:34:43;13.40;63.30
11647;DHT22;5880;52.342;9.662;2023-05-07T05:37:09;13.40;63.30
11647;DHT22;5880;52.342;9.662;2023-05-07T05:39:34;13.40;63.40
11647;DHT22;5880;52.342;9.662;2023-05-07T05:42:01;13.50;63.50
11647;DHT22;5880;52.342;9.662;2023-05-07T05:44:26;13.50;63.40
11647;DHT22;5880;52.342;9.662;2023-05-07T05:46:52;13.40;63.30
11647;DHT22;5880;52.342;9.662;2023-05-07T05:49:20;13.40;63.20
11647;DHT22;5880;52.342;9.662;2023-05-07T05:51:46;13.50;63.20
11647;DHT22;5880;52.342;9.662;2023-05-07T05:54:12;13.50;63.30
11647;DHT22;5880;52.342;9.662;2023-05-07T05:56:38;13.50;63.20
11647;DHT22;5880;52.342;9.662;2023-05-07T05:59:03;13.50;63.20
11647;DHT22;5880;52.342;9.662;2023-05-07T06:01:32;13.50;63.20
11647;DHT22;5880;52.342;9.662;2023-05-07T06:03:58;13.50;63.10
11647;DHT22;5880;52.342;9.662;2023-05-07T06:06:23;13.50;63.00
11647;DHT22;5880;52.342;9.662;2023-05-07T06:08:49;13.50;63.00
11647;DHT22;5880;52.342;9.662;2023-05-07T06:11:15;13.50;62.80
11647;DHT22;5880;52.342;9.662;2023-05-07T06:13:40;13.50;62.80
11647;DHT22;5880;52.342;9.662;2023-05-07T06:16:06;13.50;62.80
11647;DHT22;5880;52.342;9.662;2023-05-07T06:18:32;13.50;62.70
11647;DHT22;5880;52.342;9.662;2023-05-07T06:20:58;13.30;62.60
11647;DHT22;5880;52.342;9.662;2023-05-07T06:23:25;13.50;62.60
11647;DHT22;5880;52.342;9.662;2023-05-07T06:25:51;13.50;62.70
11647;DHT22;5880;52.342;9.662;2023-05-07T06:28:17;13.50;62.60
11647;DHT22;5880;52.342;9.662;2023-05-07T06:30:43;13.50;62.70
11647;DHT22;5880;52.342;9.662;2023-05-07T06:33:09;13.60;62.70
11647;DHT22;5880;52.342;9.662;2023-05-07T06:35:35;13.60;62.80
11647;DHT22;5880;52.342;9.662;2023-05-07T06:38:00;13.60;63.10
11647;DHT22;5880;52.342;9.662;2023-05-07T06:40:27;13.70;63.00
11647;DHT22;5880;52.342;9.662;2023-05-07T06:42:52;13.70;62.80
11647;DHT22;5880;52.342;9.662;2023-05-07T06:45:19;13.70;62.60
11647;DHT22;5880;52.342;9.662;2023-05-07T06:47:45;13.80;62.50
11647;DHT22;5880;52.342;9.662;2023-05-07T06:50:11;13.80;62.60
11647;DHT22;5880;52.342;9.662;2023-05-07T06:52:37;13.90;62.70
11647;DHT22;5880;52.342;9.662;2023-05-07T06:55:03;13.90;62.50
11647;DHT22;5880;52.342;9.662;2023-05-07T06:57:28;13.90;62.40
11647;DHT22;5880;52.342;9.662;2023-05-07T06:59:54;14.00;62.40
11647;DHT22;5880;52.342;9.662;2023-05-07T07:02:20;14.00;62.20
11647;DHT22;5880;52.342;9.662;2023-05-07T07:04:45;14.10;62.20
11647;DHT22;5880;52.342;9.662;2023-05-07T07:07:11;14.10;61.70
11647;DHT22;5880;52.342;9.662;2023-05-07T07:09:37;14.10;61.80
11647;DHT22;5880;52.342;9.662;2023-05-07T07:12:02;14.20;61.70
11647;DHT22;5880;52.342;9.662;2023-05-07T07:14:28;14.20;61.60
11647;DHT22;5880;52.342;9.662;2023-05-07T07:16:54;14.20;61.40
11647;DHT22;5880;52.342;9.662;2023-05-07T07:19:20;14.20;61.40
11647;DHT22;5880;52.342;9.662;2023-05-07T07:21:46;14.30;61.50
11647;DHT22;5880;52.342;9.662;2023-05-07T07:24:12;14.20;61.50
11647;DHT22;5880;52.342;9.662;2023-05-07T07:26:38;14.30;61.20
11647;DHT22;5880;52.342;9.662;2023-05-07T07:29:05;14.30;61.40
11647;DHT22;5880;52.342;9.662;2023-05-07T07:31:32;14.40;61.30
11647;DHT22;5880;52.342;9.662;2023-05-07T07:33:57;14.40;60.80
11647;DHT22;5880;52.342;9.662;2023-05-07T07:36:23;14.50;60.90
11647;DHT22;5880;52.342;9.662;2023-05-07T07:38:49;14.50;60.70
11647;DHT22;5880;52.342;9.662;2023-05-07T07:41:14;14.50;61.00
11647;DHT22;5880;52.342;9.662;2023-05-07T07:43:40;14.60;60.90
11647;DHT22;5880;52.342;9.662;2023-05-07T07:46:05;14.60;60.90
11647;DHT22;5880;52.342;9.662;2023-05-07T07:48:31;14.70;61.20
11647;DHT22;5880;52.342;9.662;2023-05-07T07:50:57;14.70;61.40
11647;DHT22;5880;52.342;9.662;2023-05-07T07:53:22;14.80;60.90
11647;DHT22;5880;52.342;9.662;2023-05-07T07:55:48;14.80;60.30
11647;DHT22;5880;52.342;9.662;2023-05-07T07:58:14;14.80;59.70
11647;DHT22;5880;52.342;9.662;2023-05-07T08:00:40;14.90;59.80
11647;DHT22;5880;52.342;9.662;2023-05-07T08:03:08;14.90;59.40
11647;DHT22;5880;52.342;9.662;2023-05-07T08:05:34;14.90;59.40
11647;DHT22;5880;52.342;9.662;2023-05-07T08:08:00;14.90;59.50
11647;DHT22;5880;52.342;9.662;2023-05-07T08:10:26;14.90;59.70
11647;DHT22;5880;52.342;9.662;2023-05-07T08:12:52;14.90;59.50
11647;DHT22;5880;52.342;9.662;2023-05-07T08:15:18;14.90;59.70
11647;DHT22;5880;52.342;9.662;2023-05-07T08:17:43;14.90;59.80
11647;DHT22;5880;52.342;9.662;2023-05-07T08:20:09;14.90;59.70
11647;DHT22;5880;52.342;9.662;2023-05-07T08:22:36;15.00;59.70
11647;DHT22;5880;52.342;9.662;2023-05-07T08:25:02;15.00;59.50
11647;DHT22;5880;52.342;9.662;2023-05-07T08:27:28;15.10;59.80
11647;DHT22;5880;52.342;9.662;2023-05-07T08:29:54;15.10;59.30
11647;DHT22;5880;52.342;9.662;2023-05-07T08:32:20;15.10;59.10
11647;DHT22;5880;52.342;9.662;2023-05-07T08:34:47;15.10;59.20
11647;DHT22;5880;52.342;9.662;2023-05-07T08:37:13;15.10;59.30
11647;DHT22;5880;52.342;9.662;2023-05-07T08:39:39;15.10;59.30
11647;DHT22;5880;52.342;9.662;2023-05-07T08:42:04;15.10;59.30
11647;DHT22;5880;52.342;9.662;2023-05-07T08:44:33;15.10;59.30
11647;DHT22;5880;52.342;9.662;2023-05-07T08:47:02;15.10;59.30
11647;DHT22;5880;52.342;9.662;2023-05-07T08:49:33;15.10;58.90
11647;DHT22;5880;52.342;9.662;2023-05-07T08:51:59;15.10;59.00
11647;DHT22;5880;52.342;9.662;2023-05-07T08:54:25;15.10;59.30
11647;DHT22;5880;52.342;9.662;2023-05-07T08:56:52;15.10;59.00
11647;DHT22;5880;52.342;9.662;2023-05-07T08:59:18;15.10;59.10
11647;DHT22;5880;52.342;9.662;2023-05-07T09:01:44;15.10;59.00
11647;DHT22;5880;52.342;9.662;2023-05-07T09:04:10;15.10;59.30
11647;DHT22;5880;52.342;9.662;2023-05-07T09:06:35;15.10;59.10
11647;DHT22;5880;52.342;9.662;2023-05-07T09:09:03;15.00;59.20
11647;DHT22;5880;52.342;9.662;2023-05-07T09:11:30;15.10;59.40
11647;DHT22;5880;52.342;9.662;2023-05-07T09:13:57;15.00;59.20
11647;DHT22;5880;52.342;9.662;2023-05-07T09:16:25;15.10;59.30
11647;DHT22;5880;52.342;9.662;2023-05-07T09:18:52;15.10;59.40
11647;DHT22;5880;52.342;9.662;2023-05-07T09:21:19;15.10;59.20
11647;DHT22;5880;52.342;9.662;2023-05-07T09:23:49;15.10;59.30
11647;DHT22;5880;52.342;9.662;2023-05-07T09:26:21;15.10;59.10
11647;DHT22;5880;52.342;9.662;2023-05-07T09:28:48;15.10;59.20
11647;DHT22;5880;52.342;9.662;2023-05-07T09:31:14;15.20;59.30
11647;DHT22;5880;52.342;9.662;2023-05-07T09:33:40;15.20;59.40
11647;DHT22;5880;52.342;9.662;2023-05-07T09:36:07;15.20;58.80
11647;DHT22;5880;52.342;9.662;2023-05-07T09:38:36;15.30;59.00
11647;DHT22;5880;52.342;9.662;2023-05-07T09:41:10;15.30;59.20
11647;DHT22;5880;52.342;9.662;2023-05-07T09:43:38;15.30;58.60
11647;DHT22;5880;52.342;9.662;2023-05-07T09:46:12;15.30;58.40
11647;DHT22;5880;52.342;9.662;2023-05-07T09:48:40;15.30;58.10
11647;DHT22;5880;52.342;9.662;2023-05-07T09:51:30;15.40;58.60
11647;DHT22;5880;52.342;9.662;2023-05-07T09:54:01;15.40;58.70
11647;DHT22;5880;52.342;9.662;2023-05-07T09:56:29;15.30;59.00
11647;DHT22;5880;52.342;9.662;2023-05-07T09:58:59;15.40;58.70
11647;DHT22;5880;52.342;9.662;2023-05-07T10:01:27;15.40;58.40
11647;DHT22;5880;52.342;9.662;2023-05-07T10:03:54;15.40;58.30
11647;DHT22;5880;52.342;9.662;2023-05-07T10:06:21;15.40;58.20
11647;DHT22;5880;52.342;9.662;2023-05-07T10:08:48;15.60;58.70
11647;DHT22;5880;52.342;9.662;2023-05-07T10:11:16;15.50;58.80
11647;DHT22;5880;52.342;9.662;2023-05-07T10:13:43;15.50;58.80
11647;DHT22;5880;52.342;9.662;2023-05-07T10:16:09;15.60;59.20
11647;DHT22;5880;52.342;9.662;2023-05-07T10:18:34;15.60;58.30
11647;DHT22;5880;52.342;9.662;2023-05-07T10:21:07;15.70;58.50
11647;DHT22;5880;52.342;9.662;2023-05-07T10:23:35;15.70;57.90
11647;DHT22;5880;52.342;9.662;2023-05-07T10:26:04;15.70;58.00
11647;DHT22;5880;52.342;9.662;2023-05-07T10:28:41;16.60;58.60
11647;DHT22;5880;52.342;9.662;2023-05-07T10:32:25;15.80;58.40
11647;DHT22;5880;52.342;9.662;2023-05-07T10:34:47;15.90;57.80
11647;DHT22;5880;52.342;9.662;2023-05-07T10:37:16;15.90;58.20
11647;DHT22;5880;52.342;9.662;2023-05-07T10:39:43;15.90;58.10
11647;DHT22;5880;52.342;9.662;2023-05-07T10:42:13;16.00;58.10
11647;DHT22;5880;52.342;9.662;2023-05-07T10:44:39;16.00;57.40
11647;DHT22;5880;52.342;9.662;2023-05-07T10:47:07;16.00;58.00
11647;DHT22;5880;52.342;9.662;2023-05-07T10:52:19;16.20;58.00
11647;DHT22;5880;52.342;9.662;2023-05-07T10:54:46;16.20;57.40
11647;DHT22;5880;52.342;9.662;2023-05-07T10:59:56;16.40;56.60
11647;DHT22;5880;52.342;9.662;2023-05-07T11:02:22;16.40;57.00
11647;DHT22;5880;52.342;9.662;2023-05-07T11:05:20;16.40;57.30
11647;DHT22;5880;52.342;9.662;2023-05-07T11:07:56;16.50;56.00
11647;DHT22;5880;52.342;9.662;2023-05-07T11:10:26;16.50;56.30
11647;DHT22;5880;52.342;9.662;2023-05-07T11:13:45;16.50;57.00
11647;DHT22;5880;52.342;9.662;2023-05-07T11:16:22;16.60;55.70
11647;DHT22;5880;52.342;9.662;2023-05-07T11:18:50;16.70;55.90
11647;DHT22;5880;52.342;9.662;2023-05-07T11:21:41;16.70;56.60
11647;DHT22;5880;52.342;9.662;2023-05-07T11:24:08;16.70;56.10
11647;DHT22;5880;52.342;9.662;2023-05-07T11:26:50;16.70;56.20
11647;DHT22;5880;52.342;9.662;2023-05-07T11:29:20;16.80;55.00
11647;DHT22;5880;52.342;9.662;2023-05-07T11:31:51;16.80;55.90
11647;DHT22;5880;52.342;9.662;2023-05-07T11:34:22;16.80;55.10
11647;DHT22;5880;52.342;9.662;2023-05-07T11:36:50;16.80;54.80
11647;DHT22;5880;52.342;9.662;2023-05-07T11:39:27;16.70;54.50
11647;DHT22;5880;52.342;9.662;2023-05-07T11:41:55;16.70;54.40
11647;DHT22;5880;52.342;9.662;2023-05-07T11:44:21;16.70;55.60
11647;DHT22;5880;52.342;9.662;2023-05-07T11:46:46;16.60;55.40
11647;DHT22;5880;52.342;9.662;2023-05-07T11:49:12;16.60;55.30
11647;DHT22;5880;52.342;9.662;2023-05-07T11:51:38;16.60;55.00
11647;DHT22;5880;52.342;9.662;2023-05-07T11:54:06;16.60;55.10
11647;DHT22;5880;52.342;9.662;2023-05-07T11:56:34;16.60;55.30
11647;DHT22;5880;52.342;9.662;2023-05-07T11:59:01;16.60;55.10
11647;DHT22;5880;52.342;9.662;2023-05-07T12:01:27;16.70;55.30
11647;DHT22;5880;52.342;9.662;2023-05-07T12:03:52;16.70;55.80
11647;DHT22;5880;52.342;9.662;2023-05-07T12:06:19;16.60;55.30
11647;DHT22;5880;52.342;9.662;2023-05-07T12:08:46;16.70;54.40
11647;DHT22;5880;52.342;9.662;2023-05-07T12:11:18;16.70;54.20
11647;DHT22;5880;52.342;9.662;2023-05-07T12:13:48;16.70;54.80
11647;DHT22;5880;52.342;9.662;2023-05-07T12:16:14;16.80;55.20
11647;DHT22;5880;52.342;9.662;2023-05-07T12:18:40;16.80;55.60
11647;DHT22;5880;52.342;9.662;2023-05-07T12:21:06;16.90;55.00
11647;DHT22;5880;52.342;9.662;2023-05-07T12:23:34;16.90;54.80
11647;DHT22;5880;52.342;9.662;2023-05-07T12:26:01;16.90;54.10
11647;DHT22;5880;52.342;9.662;2023-05-07T12:28:27;17.00;54.60
11647;DHT22;5880;52.342;9.662;2023-05-07T12:30:54;17.00;53.80
11647;DHT22;5880;52.342;9.662;2023-05-07T12:33:24;17.00;54.10
11647;DHT22;5880;52.342;9.662;2023-05-07T12:35:54;17.00;53.60
11647;DHT22;5880;52.342;9.662;2023-05-07T12:38:20;16.90;53.80
11647;DHT22;5880;52.342;9.662;2023-05-07T12:40:48;16.90;53.50
11647;DHT22;5880;52.342;9.662;2023-05-07T12:43:20;16.90;54.00
11647;DHT22;5880;52.342;9.662;2023-05-07T12:45:50;16.90;54.00
11647;DHT22;5880;52.342;9.662;2023-05-07T12:48:17;17.00;54.70
11647;DHT22;5880;52.342;9.662;2023-05-07T12:50:44;17.00;54.30
11647;DHT22;5880;52.342;9.662;2023-05-07T12:53:11;17.10;54.00
11647;DHT22;5880;52.342;9.662;2023-05-07T12:55:42;17.10;54.50
11647;DHT22;5880;52.342;9.662;2023-05-07T12:58:17;17.10;53.70
11647;DHT22;5880;52.342;9.662;2023-05-07T13:00:59;17.20;53.70
11647;DHT22;5880;52.342;9.662;2023-05-07T13:03:27;17.20;53.70
11647;DHT22;5880;52.342;9.662;2023-05-07T13:06:07;17.10;52.70
11647;DHT22;5880;52.342;9.662;2023-05-07T13:08:39;17.20;52.70
11647;DHT22;5880;52.342;9.662;2023-05-07T13:11:09;17.10;53.10
11647;DHT22;5880;52.342;9.662;2023-05-07T13:13:36;17.10;53.10
11647;DHT22;5880;52.342;9.662;2023-05-07T13:16:04;17.20;53.20
11647;DHT22;5880;52.342;9.662;2023-05-07T13:18:32;17.20;53.30
11647;DHT22;5880;52.342;9.662;2023-05-07T13:20:59;17.20;53.20
11647;DHT22;5880;52.342;9.662;2023-05-07T13:23:26;17.20;53.70
11647;DHT22;5880;52.342;9.662;2023-05-07T13:25:52;17.20;53.60
11647;DHT22;5880;52.342;9.662;2023-05-07T13:28:21;17.20;53.20
11647;DHT22;5880;52.342;9.662;2023-05-07T13:30:48;17.20;53.00
11647;DHT22;5880;52.342;9.662;2023-05-07T13:33:13;17.30;53.40
11647;DHT22;5880;52.342;9.662;2023-05-07T13:35:40;17.30;52.80
11647;DHT22;5880;52.342;9.662;2023-05-07T13:38:06;17.30;52.70
11647;DHT22;5880;52.342;9.662;2023-05-07T13:40:32;17.30;52.80
11647;DHT22;5880;52.342;9.662;2023-05-07T13:42:58;17.40;52.50
11647;DHT22;5880;52.342;9.662;2023-05-07T13:45:25;17.40;53.30
11647;DHT22;5880;52.342;9.662;2023-05-07T13:47:51;17.50;53.00
11647;DHT22;5880;52.342;9.662;2023-05-07T13:50:17;17.50;52.20
11647;DHT22;5880;52.342;9.662;2023-05-07T13:52:44;17.50;52.20
11647;DHT22;5880;52.342;9.662;2023-05-07T13:55:19;17.50;52.20
11647;DHT22;5880;52.342;9.662;2023-05-07T13:57:46;17.60;51.70
11647;DHT22;5880;52.342;9.662;2023-05-07T14:00:13;17.50;51.60
11647;DHT22;5880;52.342;9.662;2023-05-07T14:02:40;17.50;51.50
11647;DHT22;5880;52.342;9.662;2023-05-07T14:05:06;17.50;52.00
11647;DHT22;5880;52.342;9.662;2023-05-07T14:07:32;17.50;52.20
11647;DHT22;5880;52.342;9.662;2023-05-07T14:09:58;17.50;52.10
11647;DHT22;5880;52.342;9.662;2023-05-07T14:12:24;17.50;52.40
11647;DHT22;5880;52.342;9.662;2023-05-07T14:14:50;17.50;52.20
11647;DHT22;5880;52.342;9.662;2023-05-07T14:17:16;17.50;52.50
11647;DHT22;5880;52.342;9.662;2023-05-07T14:19:43;17.50;52.70
11647;DHT22;5880;52.342;9.662;2023-05-07T14:22:09;17.60;52.70
11647;DHT22;5880;52.342;9.662;2023-05-07T14:24:34;17.60;53.10
11647;DHT22;5880;52.342;9.662;2023-05-07T14:27:00;17.70;53.30
11647;DHT22;5880;52.342;9.662;2023-05-07T14:29:26;17.70;53.10
11647;DHT22;5880;52.342;9.662;2023-05-07T14:31:51;17.80;52.40
11647;DHT22;5880;52.342;9.662;2023-05-07T14:34:17;17.80;52.40
11647;DHT22;5880;52.342;9.662;2023-05-07T14:36:43;17.80;51.90
11647;DHT22;5880;52.342;9.662;2023-05-07T14:39:09;17.80;51.70
11647;DHT22;5880;52.342;9.662;2023-05-07T14:41:35;17.70;51.40
11647;DHT22;5880;52.342;9.662;2023-05-07T14:44:00;17.70;52.40
11647;DHT22;5880;52.342;9.662;2023-05-07T14:46:26;17.70;51.70
11647;DHT22;5880;52.342;9.662;2023-05-07T14:48:52;17.70;51.80
11647;DHT22;5880;52.342;9.662;2023-05-07T14:51:18;17.70;52.00
11647;DHT22;5880;52.342;9.662;2023-05-07T14:53:44;17.70;52.50
11647;DHT22;5880;52.342;9.662;2023-05-07T14:56:10;17.70;51.80
11647;DHT22;5880;52.342;9.662;2023-05-07T14:58:36;17.80;51.70
11647;DHT22;5880;52.342;9.662;2023-05-07T15:01:02;17.70;51.30
11647;DHT22;5880;52.342;9.662;2023-05-07T15:03:28;17.70;51.30
11647;DHT22;5880;52.342;9.662;2023-05-07T15:05:55;17.60;51.20
11647;DHT22;5880;52.342;9.662;2023-05-07T15:08:21;17.60;51.10
11647;DHT22;5880;52.342;9.662;2023-05-07T15:10:46;17.60;51.30
11647;DHT22;5880;52.342;9.662;2023-05-07T15:13:12;17.60;51.00
11647;DHT22;5880;52.342;9.662;2023-05-07T15:15:38;17.50;50.80
11647;DHT22;5880;52.342;9.662;2023-05-07T15:18:04;17.60;51.00
11647;DHT22;5880;52.342;9.662;2023-05-07T15:20:30;17.50;51.20
11647;DHT22;5880;52.342;9.662;2023-05-07T15:22:56;17.50;51.30
11647;DHT22;5880;52.342;9.662;2023-05-07T15:25:23;17.50;51.40
11647;DHT22;5880;52.342;9.662;2023-05-07T15:27:49;17.50;51.40
11647;DHT22;5880;52.342;9.662;2023-05-07T15:30:15;17.50;51.30
11647;DHT22;5880;52.342;9.662;2023-05-07T15:32:41;17.50;51.30
11647;DHT22;5880;52.342;9.662;2023-05-07T15:35:08;17.40;50.90
11647;DHT22;5880;52.342;9.662;2023-05-07T15:37:34;17.40;50.90
11647;DHT22;5880;52.342;9.662;2023-05-07T15:40:00;17.40;51.40
11647;DHT22;5880;52.342;9.662;2023-05-07T15:42:27;17.40;51.00
11647;DHT22;5880;52.342;9.662;2023-05-07T15:44:53;17.40;50.90
11647;DHT22;5880;52.342;9.662;2023-05-07T15:47:19;17.40;50.70
11647;DHT22;5880;52.342;9.662;2023-05-07T15:49:46;17.90;51.20
11647;DHT22;5880;52.342;9.662;2023-05-07T15:52:12;17.30;50.60